sensor_id;sensor_type;location;lat;lon;timestamp;P1;durP1;ratioP1;P2;durP2;ratioP2
28174;SDS011;59417;44.788;10.334;2022-12-18T00:00:55;53.17;;;37.72;;
28174;SDS011;59417;44.788;10.334;2022-12-18T00:03:20;54.50;;;37.20;;
28174;SDS011;59417;44.788;10.334;2022-12-18T00:05:49;51.03;;;35.38;;
28174;SDS011;59417;44.788;10.334;2022-12-18T00:08:16;46.33;;;35.58;;
28174;SDS011;59417;44.788;10.334;2022-12-18T00:10:42;54.33;;;36.63;;
28174;SDS011;59417;44.788;10.334;2022-12-18T00:13:08;57.92;;;38.78;;
28174;SDS011;59417;44.788;10.334;2022-12-18T00:15:35;49.67;;;37.13;;
28174;SDS011;59417;44.788;10.334;2022-12-18T00:18:03;53.78;;;37.67;;
28174;SDS011;59417;44.788;10.334;2022-12-18T00:20:28;56.38;;;37.95;;
28174;SDS011;59417;44.788;10.334;2022-12-18T00:22:54;52.03;;;34.72;;
28174;SDS011;59417;44.788;10.334;2022-12-18T00:25:20;52.88;;;36.35;;
28174;SDS011;59417;44.788;10.334;2022-12-18T00:27:46;54.17;;;37.67;;
28174;SDS011;59417;44.788;10.334;2022-12-18T00:30:13;54.53;;;36.50;;
28174;SDS011;59417;44.788;10.334;2022-12-18T00:32:38;51.92;;;36.85;;
28174;SDS011;59417;44.788;10.334;2022-12-18T00:35:05;53.50;;;36.85;;
28174;SDS011;59417;44.788;10.334;2022-12-18T00:37:33;47.92;;;36.25;;
28174;SDS011;59417;44.788;10.334;2022-12-18T00:39:59;46.92;;;34.58;;
28174;SDS011;59417;44.788;10.334;2022-12-18T00:42:24;48.70;;;34.47;;
28174;SDS011;59417;44.788;10.334;2022-12-18T00:45:09;48.30;;;35.25;;
28174;SDS011;59417;44.788;10.334;2022-12-18T00:47:35;49.15;;;33.97;;
28174;SDS011;59417;44.788;10.334;2022-12-18T00:50:01;47.05;;;32.58;;
28174;SDS011;59417;44.788;10.334;2022-12-18T00:52:26;52.38;;;35.33;;
28174;SDS011;59417;44.788;10.334;2022-12-18T00:54:52;49.88;;;34.95;;
28174;SDS011;59417;44.788;10.334;2022-12-18T00:57:18;51.95;;;35.90;;
28174;SDS011;59417;44.788;10.334;2022-12-18T00:59:43;46.63;;;35.67;;
28174;SDS011;59417;44.788;10.334;2022-12-18T01:02:09;54.28;;;35.90;;
28174;SDS011;59417;44.788;10.334;2022-12-18T01:04:36;54.58;;;35.00;;
28174;SDS011;59417;44.788;10.334;2022-12-18T01:07:01;49.05;;;35.88;;
28174;SDS011;59417;44.788;10.334;2022-12-18T01:09:27;50.47;;;33.60;;
28174;SDS011;59417;44.788;10.334;2022-12-18T01:11:53;58.50;;;36.22;;
28174;SDS011;59417;44.788;10.334;2022-12-18T01:14:18;45.00;;;33.00;;
28174;SDS011;59417;44.788;10.334;2022-12-18T01:16:44;50.75;;;35.60;;
28174;SDS011;59417;44.788;10.334;2022-12-18T01:19:10;52.78;;;36.45;;
28174;SDS011;59417;44.788;10.334;2022-12-18T01:21:36;49.78;;;36.00;;
28174;SDS011;59417;44.788;10.334;2022-12-18T01:24:03;52.78;;;36.83;;
28174;SDS011;59417;44.788;10.334;2022-12-18T01:26:29;52.15;;;36.70;;
28174;SDS011;59417;44.788;10.334;2022-12-18T01:28:56;52.63;;;35.80;;
28174;SDS011;59417;44.788;10.334;2022-12-18T01:31:23;49.17;;;35.88;;
28174;SDS011;59417;44.788;10.334;2022-12-18T01:33:51;48.75;;;36.08;;
28174;SDS011;59417;44.788;10.334;2022-12-18T01:36:26;50.33;;;35.83;;
28174;SDS011;59417;44.788;10.334;2022-12-18T01:38:56;54.05;;;36.88;;
28174;SDS011;59417;44.788;10.334;2022-12-18T01:41:25;51.50;;;35.78;;
28174;SDS011;59417;44.788;10.334;2022-12-18T01:47:19;61.25;;;38.53;;
28174;SDS011;59417;44.788;10.334;2022-12-18T01:49:57;57.42;;;35.72;;
28174;SDS011;59417;44.788;10.334;2022-12-18T01:52:29;56.30;;;37.00;;
28174;SDS011;59417;44.788;10.334;2022-12-18T01:54:58;56.90;;;37.43;;
28174;SDS011;59417;44.788;10.334;2022-12-18T01:57:31;56.42;;;39.08;;
28174;SDS011;59417;44.788;10.334;2022-12-18T02:00:03;54.97;;;34.53;;
28174;SDS011;59417;44.788;10.334;2022-12-18T02:02:40;51.72;;;37.00;;
28174;SDS011;59417;44.788;10.334;2022-12-18T02:05:08;62.30;;;39.45;;
28174;SDS011;59417;44.788;10.334;2022-12-18T02:07:44;58.22;;;36.70;;
28174;SDS011;59417;44.788;10.334;2022-12-18T02:10:20;53.38;;;38.05;;
28174;SDS011;59417;44.788;10.334;2022-12-18T02:12:57;54.63;;;36.00;;
28174;SDS011;59417;44.788;10.334;2022-12-18T02:18:36;51.45;;;35.55;;
28174;SDS011;59417;44.788;10.334;2022-12-18T02:21:28;58.17;;;38.65;;
28174;SDS011;59417;44.788;10.334;2022-12-18T02:24:41;58.70;;;36.03;;
28174;SDS011;59417;44.788;10.334;2022-12-18T02:27:17;59.58;;;38.92;;
28174;SDS011;59417;44.788;10.334;2022-12-18T02:29:46;58.00;;;38.03;;
28174;SDS011;59417;44.788;10.334;2022-12-18T02:32:20;61.45;;;38.20;;
28174;SDS011;59417;44.788;10.334;2022-12-18T02:34:54;55.13;;;38.42;;
28174;SDS011;59417;44.788;10.334;2022-12-18T02:37:27;58.05;;;37.08;;
28174;SDS011;59417;44.788;10.334;2022-12-18T02:40:00;53.60;;;36.85;;
28174;SDS011;59417;44.788;10.334;2022-12-18T02:42:35;53.80;;;35.97;;
28174;SDS011;59417;44.788;10.334;2022-12-18T02:45:05;45.90;;;32.72;;
28174;SDS011;59417;44.788;10.334;2022-12-18T02:47:36;54.87;;;35.50;;
28174;SDS011;59417;44.788;10.334;2022-12-18T02:53:15;48.67;;;32.25;;
28174;SDS011;59417;44.788;10.334;2022-12-18T02:59:15;55.78;;;35.08;;
28174;SDS011;59417;44.788;10.334;2022-12-18T03:01:42;51.22;;;37.90;;
28174;SDS011;59417;44.788;10.334;2022-12-18T03:04:23;58.55;;;37.50;;
28174;SDS011;59417;44.788;10.334;2022-12-18T03:07:07;64.47;;;40.30;;
28174;SDS011;59417;44.788;10.334;2022-12-18T03:09:41;54.10;;;38.38;;
28174;SDS011;59417;44.788;10.334;2022-12-18T03:17:56;56.65;;;38.08;;
28174;SDS011;59417;44.788;10.334;2022-12-18T03:20:31;54.05;;;37.33;;
28174;SDS011;59417;44.788;10.334;2022-12-18T03:23:10;54.47;;;38.25;;
28174;SDS011;59417;44.788;10.334;2022-12-18T03:25:48;52.70;;;35.67;;
28174;SDS011;59417;44.788;10.334;2022-12-18T03:28:22;46.25;;;31.40;;
28174;SDS011;59417;44.788;10.334;2022-12-18T03:30:56;44.83;;;30.27;;
28174;SDS011;59417;44.788;10.334;2022-12-18T03:33:29;50.35;;;32.00;;
28174;SDS011;59417;44.788;10.334;2022-12-18T03:36:03;43.67;;;31.17;;
28174;SDS011;59417;44.788;10.334;2022-12-18T03:38:31;45.57;;;30.33;;
28174;SDS011;59417;44.788;10.334;2022-12-18T03:54:43;41.80;;;29.58;;
28174;SDS011;59417;44.788;10.334;2022-12-18T03:57:18;36.70;;;26.30;;
28174;SDS011;59417;44.788;10.334;2022-12-18T03:59:50;34.13;;;25.95;;
28174;SDS011;59417;44.788;10.334;2022-12-18T04:02:28;40.55;;;27.15;;
28174;SDS011;59417;44.788;10.334;2022-12-18T04:05:00;43.35;;;29.27;;
28174;SDS011;59417;44.788;10.334;2022-12-18T04:07:35;41.22;;;28.85;;
28174;SDS011;59417;44.788;10.334;2022-12-18T04:10:37;41.28;;;27.70;;
28174;SDS011;59417;44.788;10.334;2022-12-18T04:13:05;39.60;;;29.23;;
28174;SDS011;59417;44.788;10.334;2022-12-18T04:15:32;43.20;;;31.45;;
28174;SDS011;59417;44.788;10.334;2022-12-18T04:18:01;46.67;;;29.52;;
28174;SDS011;59417;44.788;10.334;2022-12-18T04:20:36;35.70;;;28.35;;
28174;SDS011;59417;44.788;10.334;2022-12-18T04:23:02;45.15;;;30.17;;
28174;SDS011;59417;44.788;10.334;2022-12-18T04:25:29;38.42;;;27.50;;
28174;SDS011;59417;44.788;10.334;2022-12-18T04:28:04;38.15;;;26.27;;
28174;SDS011;59417;44.788;10.334;2022-12-18T04:30:40;34.03;;;25.60;;
28174;SDS011;59417;44.788;10.334;2022-12-18T04:33:10;34.33;;;26.33;;
28174;SDS011;59417;44.788;10.334;2022-12-18T04:35:38;31.20;;;26.05;;
28174;SDS011;59417;44.788;10.334;2022-12-18T04:38:06;33.92;;;25.58;;
28174;SDS011;59417;44.788;10.334;2022-12-18T04:40:33;39.47;;;28.30;;
28174;SDS011;59417;44.788;10.334;2022-12-18T04:43:04;36.83;;;28.55;;
28174;SDS011;59417;44.788;10.334;2022-12-18T04:45:31;35.78;;;28.05;;
28174;SDS011;59417;44.788;10.334;2022-12-18T04:48:01;41.03;;;29.02;;
28174;SDS011;59417;44.788;10.334;2022-12-18T04:50:31;37.75;;;27.50;;
28174;SDS011;59417;44.788;10.334;2022-12-18T04:52:57;40.55;;;26.90;;
28174;SDS011;59417;44.788;10.334;2022-12-18T04:55:23;41.03;;;29.77;;
28174;SDS011;59417;44.788;10.334;2022-12-18T04:57:49;39.95;;;28.85;;
28174;SDS011;59417;44.788;10.334;2022-12-18T05:00:15;40.28;;;27.77;;
28174;SDS011;59417;44.788;10.334;2022-12-18T05:02:51;44.80;;;30.08;;
28174;SDS011;59417;44.788;10.334;2022-12-18T05:05:22;43.30;;;30.48;;
28174;SDS011;59417;44.788;10.334;2022-12-18T05:07:52;39.42;;;29.70;;
28174;SDS011;59417;44.788;10.334;2022-12-18T05:10:18;38.97;;;28.95;;
28174;SDS011;59417;44.788;10.334;2022-12-18T05:12:44;45.50;;;29.42;;
28174;SDS011;59417;44.788;10.334;2022-12-18T05:15:34;45.53;;;29.50;;
28174;SDS011;59417;44.788;10.334;2022-12-18T05:18:00;60.65;;;32.00;;
28174;SDS011;59417;44.788;10.334;2022-12-18T05:20:28;53.00;;;31.25;;
28174;SDS011;59417;44.788;10.334;2022-12-18T05:22:55;43.72;;;29.90;;
28174;SDS011;59417;44.788;10.334;2022-12-18T05:25:27;45.80;;;32.65;;
28174;SDS011;59417;44.788;10.334;2022-12-18T05:27:57;50.55;;;32.13;;
28174;SDS011;59417;44.788;10.334;2022-12-18T05:30:23;63.03;;;33.83;;
28174;SDS011;59417;44.788;10.334;2022-12-18T05:32:49;107.53;;;35.33;;
28174;SDS011;59417;44.788;10.334;2022-12-18T05:35:15;62.38;;;33.03;;
28174;SDS011;59417;44.788;10.334;2022-12-18T05:37:48;103.55;;;32.95;;
28174;SDS011;59417;44.788;10.334;2022-12-18T05:40:19;69.30;;;33.92;;
28174;SDS011;59417;44.788;10.334;2022-12-18T05:42:45;117.18;;;36.67;;
28174;SDS011;59417;44.788;10.334;2022-12-18T05:45:10;67.60;;;32.47;;
28174;SDS011;59417;44.788;10.334;2022-12-18T05:47:36;56.40;;;33.30;;
28174;SDS011;59417;44.788;10.334;2022-12-18T05:50:02;58.53;;;32.60;;
28174;SDS011;59417;44.788;10.334;2022-12-18T05:52:27;71.13;;;33.03;;
28174;SDS011;59417;44.788;10.334;2022-12-18T05:54:53;71.22;;;34.17;;
28174;SDS011;59417;44.788;10.334;2022-12-18T05:57:19;77.20;;;34.88;;
28174;SDS011;59417;44.788;10.334;2022-12-18T05:59:45;67.82;;;35.38;;
28174;SDS011;59417;44.788;10.334;2022-12-18T06:02:14;69.22;;;33.25;;
28174;SDS011;59417;44.788;10.334;2022-12-18T06:04:44;57.45;;;31.52;;
28174;SDS011;59417;44.788;10.334;2022-12-18T06:07:10;63.33;;;32.13;;
28174;SDS011;59417;44.788;10.334;2022-12-18T06:09:36;76.18;;;30.92;;
28174;SDS011;59417;44.788;10.334;2022-12-18T06:12:02;90.93;;;33.00;;
28174;SDS011;59417;44.788;10.334;2022-12-18T06:14:29;52.30;;;31.52;;
28174;SDS011;59417;44.788;10.334;2022-12-18T06:16:54;125.07;;;34.92;;
28174;SDS011;59417;44.788;10.334;2022-12-18T06:19:20;86.85;;;34.35;;
28174;SDS011;59417;44.788;10.334;2022-12-18T06:24:48;64.15;;;33.38;;
28174;SDS011;59417;44.788;10.334;2022-12-18T06:27:14;82.40;;;34.72;;
28174;SDS011;59417;44.788;10.334;2022-12-18T06:29:41;77.35;;;34.35;;
28174;SDS011;59417;44.788;10.334;2022-12-18T06:32:07;105.75;;;38.95;;
28174;SDS011;59417;44.788;10.334;2022-12-18T06:34:37;72.80;;;37.47;;
28174;SDS011;59417;44.788;10.334;2022-12-18T06:37:04;52.70;;;35.17;;
28174;SDS011;59417;44.788;10.334;2022-12-18T06:39:29;79.72;;;36.03;;
28174;SDS011;59417;44.788;10.334;2022-12-18T06:41:55;56.85;;;32.60;;
28174;SDS011;59417;44.788;10.334;2022-12-18T06:44:21;69.63;;;35.88;;
28174;SDS011;59417;44.788;10.334;2022-12-18T06:46:47;60.47;;;38.67;;
28174;SDS011;59417;44.788;10.334;2022-12-18T06:49:13;71.88;;;39.08;;
28174;SDS011;59417;44.788;10.334;2022-12-18T06:51:38;75.57;;;41.10;;
28174;SDS011;59417;44.788;10.334;2022-12-18T06:54:04;60.20;;;39.03;;
28174;SDS011;59417;44.788;10.334;2022-12-18T06:56:31;81.43;;;38.05;;
28174;SDS011;59417;44.788;10.334;2022-12-18T06:59:00;59.67;;;36.78;;
28174;SDS011;59417;44.788;10.334;2022-12-18T07:01:26;63.13;;;39.42;;
28174;SDS011;59417;44.788;10.334;2022-12-18T07:03:54;68.65;;;39.42;;
28174;SDS011;59417;44.788;10.334;2022-12-18T07:06:23;69.72;;;40.45;;
28174;SDS011;59417;44.788;10.334;2022-12-18T07:08:50;60.03;;;40.72;;
28174;SDS011;59417;44.788;10.334;2022-12-18T07:11:17;64.53;;;36.53;;
28174;SDS011;59417;44.788;10.334;2022-12-18T07:13:43;61.58;;;37.78;;
28174;SDS011;59417;44.788;10.334;2022-12-18T07:16:11;58.13;;;35.70;;
28174;SDS011;59417;44.788;10.334;2022-12-18T07:18:38;58.65;;;37.30;;
28174;SDS011;59417;44.788;10.334;2022-12-18T07:21:05;62.10;;;40.47;;
28174;SDS011;59417;44.788;10.334;2022-12-18T07:23:36;65.63;;;38.40;;
28174;SDS011;59417;44.788;10.334;2022-12-18T07:26:03;61.97;;;39.80;;
28174;SDS011;59417;44.788;10.334;2022-12-18T07:28:31;66.45;;;38.15;;
28174;SDS011;59417;44.788;10.334;2022-12-18T07:30:57;76.95;;;42.40;;
28174;SDS011;59417;44.788;10.334;2022-12-18T07:33:24;66.72;;;40.50;;
28174;SDS011;59417;44.788;10.334;2022-12-18T07:35:50;71.63;;;42.40;;
28174;SDS011;59417;44.788;10.334;2022-12-18T07:38:16;68.82;;;40.47;;
28174;SDS011;59417;44.788;10.334;2022-12-18T07:40:41;68.05;;;40.55;;
28174;SDS011;59417;44.788;10.334;2022-12-18T07:43:07;65.53;;;39.85;;
28174;SDS011;59417;44.788;10.334;2022-12-18T07:45:33;66.68;;;41.63;;
28174;SDS011;59417;44.788;10.334;2022-12-18T07:48:09;66.47;;;40.55;;
28174;SDS011;59417;44.788;10.334;2022-12-18T07:50:41;67.82;;;41.67;;
28174;SDS011;59417;44.788;10.334;2022-12-18T07:53:09;72.07;;;40.92;;
28174;SDS011;59417;44.788;10.334;2022-12-18T07:55:34;70.43;;;38.67;;
28174;SDS011;59417;44.788;10.334;2022-12-18T07:58:02;73.68;;;40.42;;
28174;SDS011;59417;44.788;10.334;2022-12-18T08:00:28;62.60;;;38.13;;
28174;SDS011;59417;44.788;10.334;2022-12-18T08:02:55;62.17;;;39.30;;
28174;SDS011;59417;44.788;10.334;2022-12-18T08:05:20;68.55;;;40.90;;
28174;SDS011;59417;44.788;10.334;2022-12-18T08:07:46;72.47;;;38.78;;
28174;SDS011;59417;44.788;10.334;2022-12-18T08:10:12;63.50;;;39.15;;
28174;SDS011;59417;44.788;10.334;2022-12-18T08:12:38;71.10;;;41.80;;
28174;SDS011;59417;44.788;10.334;2022-12-18T08:15:04;71.85;;;39.60;;
28174;SDS011;59417;44.788;10.334;2022-12-18T08:17:31;73.03;;;42.30;;
28174;SDS011;59417;44.788;10.334;2022-12-18T08:19:57;75.72;;;42.83;;
28174;SDS011;59417;44.788;10.334;2022-12-18T08:22:23;77.32;;;45.45;;
28174;SDS011;59417;44.788;10.334;2022-12-18T08:24:50;76.65;;;44.92;;
28174;SDS011;59417;44.788;10.334;2022-12-18T08:27:17;71.40;;;41.55;;
28174;SDS011;59417;44.788;10.334;2022-12-18T08:29:44;72.50;;;42.25;;
28174;SDS011;59417;44.788;10.334;2022-12-18T08:32:09;73.40;;;42.65;;
28174;SDS011;59417;44.788;10.334;2022-12-18T08:34:35;70.70;;;42.33;;
28174;SDS011;59417;44.788;10.334;2022-12-18T08:37:01;71.13;;;39.67;;
28174;SDS011;59417;44.788;10.334;2022-12-18T08:39:27;64.95;;;38.55;;
28174;SDS011;59417;44.788;10.334;2022-12-18T08:41:53;65.78;;;40.85;;
28174;SDS011;59417;44.788;10.334;2022-12-18T08:44:37;78.07;;;40.50;;
28174;SDS011;59417;44.788;10.334;2022-12-18T08:47:03;69.47;;;38.75;;
28174;SDS011;59417;44.788;10.334;2022-12-18T08:49:30;73.28;;;37.58;;
28174;SDS011;59417;44.788;10.334;2022-12-18T08:51:56;71.40;;;38.33;;
28174;SDS011;59417;44.788;10.334;2022-12-18T08:54:23;68.32;;;39.28;;
28174;SDS011;59417;44.788;10.334;2022-12-18T08:56:49;63.85;;;37.65;;
28174;SDS011;59417;44.788;10.334;2022-12-18T08:59:16;65.53;;;37.72;;
28174;SDS011;59417;44.788;10.334;2022-12-18T09:01:42;56.15;;;33.60;;
28174;SDS011;59417;44.788;10.334;2022-12-18T09:04:11;60.85;;;36.80;;
28174;SDS011;59417;44.788;10.334;2022-12-18T09:06:38;61.00;;;38.83;;
28174;SDS011;59417;44.788;10.334;2022-12-18T09:09:04;60.33;;;37.03;;
28174;SDS011;59417;44.788;10.334;2022-12-18T09:11:30;62.13;;;36.22;;
28174;SDS011;59417;44.788;10.334;2022-12-18T09:13:57;66.05;;;38.05;;
28174;SDS011;59417;44.788;10.334;2022-12-18T09:16:25;62.33;;;38.30;;
28174;SDS011;59417;44.788;10.334;2022-12-18T09:18:54;67.47;;;37.20;;
28174;SDS011;59417;44.788;10.334;2022-12-18T09:21:25;63.17;;;36.95;;
28174;SDS011;59417;44.788;10.334;2022-12-18T09:23:54;64.80;;;37.25;;
28174;SDS011;59417;44.788;10.334;2022-12-18T09:26:21;61.00;;;35.25;;
28174;SDS011;59417;44.788;10.334;2022-12-18T09:29:00;55.00;;;34.25;;
28174;SDS011;59417;44.788;10.334;2022-12-18T09:31:27;60.58;;;35.05;;
28174;SDS011;59417;44.788;10.334;2022-12-18T09:33:54;66.15;;;36.67;;
28174;SDS011;59417;44.788;10.334;2022-12-18T09:36:21;62.15;;;36.00;;
28174;SDS011;59417;44.788;10.334;2022-12-18T09:38:47;66.35;;;37.42;;
28174;SDS011;59417;44.788;10.334;2022-12-18T09:41:25;66.22;;;37.13;;
28174;SDS011;59417;44.788;10.334;2022-12-18T09:43:57;59.63;;;35.13;;
28174;SDS011;59417;44.788;10.334;2022-12-18T09:49:40;66.15;;;35.08;;
28174;SDS011;59417;44.788;10.334;2022-12-18T09:52:17;62.00;;;35.80;;
28174;SDS011;59417;44.788;10.334;2022-12-18T09:54:54;63.97;;;35.40;;
28174;SDS011;59417;44.788;10.334;2022-12-18T09:57:24;58.63;;;32.78;;
28174;SDS011;59417;44.788;10.334;2022-12-18T09:59:58;53.08;;;32.47;;
28174;SDS011;59417;44.788;10.334;2022-12-18T10:02:46;58.20;;;32.92;;
28174;SDS011;59417;44.788;10.334;2022-12-18T10:05:15;55.90;;;33.97;;
28174;SDS011;59417;44.788;10.334;2022-12-18T10:10:32;51.35;;;32.75;;
28174;SDS011;59417;44.788;10.334;2022-12-18T10:13:19;58.13;;;30.90;;
28174;SDS011;59417;44.788;10.334;2022-12-18T10:19:01;53.55;;;31.23;;
28174;SDS011;59417;44.788;10.334;2022-12-18T10:24:33;60.38;;;33.35;;
28174;SDS011;59417;44.788;10.334;2022-12-18T10:27:13;53.85;;;31.38;;
28174;SDS011;59417;44.788;10.334;2022-12-18T10:35:19;55.45;;;31.67;;
28174;SDS011;59417;44.788;10.334;2022-12-18T10:38:04;52.10;;;29.83;;
28174;SDS011;59417;44.788;10.334;2022-12-18T10:44:23;57.75;;;31.27;;
28174;SDS011;59417;44.788;10.334;2022-12-18T10:47:03;58.20;;;32.75;;
28174;SDS011;59417;44.788;10.334;2022-12-18T10:49:32;62.95;;;33.63;;
28174;SDS011;59417;44.788;10.334;2022-12-18T10:52:20;61.07;;;33.27;;
28174;SDS011;59417;44.788;10.334;2022-12-18T10:54:59;53.63;;;33.65;;
28174;SDS011;59417;44.788;10.334;2022-12-18T10:57:52;52.33;;;32.28;;
28174;SDS011;59417;44.788;10.334;2022-12-18T11:00:38;54.92;;;32.88;;
28174;SDS011;59417;44.788;10.334;2022-12-18T11:03:28;56.38;;;32.75;;
28174;SDS011;59417;44.788;10.334;2022-12-18T11:06:24;53.45;;;32.35;;
28174;SDS011;59417;44.788;10.334;2022-12-18T11:08:59;47.55;;;31.92;;
28174;SDS011;59417;44.788;10.334;2022-12-18T11:11:31;60.13;;;32.17;;
28174;SDS011;59417;44.788;10.334;2022-12-18T11:17:22;51.58;;;29.63;;
28174;SDS011;59417;44.788;10.334;2022-12-18T11:19:54;57.38;;;29.90;;
28174;SDS011;59417;44.788;10.334;2022-12-18T11:22:26;50.42;;;30.67;;
28174;SDS011;59417;44.788;10.334;2022-12-18T11:27:38;55.88;;;29.73;;
28174;SDS011;59417;44.788;10.334;2022-12-18T11:30:25;56.55;;;31.95;;
28174;SDS011;59417;44.788;10.334;2022-12-18T11:32:55;54.60;;;32.40;;
28174;SDS011;59417;44.788;10.334;2022-12-18T11:35:53;59.65;;;33.88;;
28174;SDS011;59417;44.788;10.334;2022-12-18T11:43:50;65.20;;;35.72;;
28174;SDS011;59417;44.788;10.334;2022-12-18T11:46:42;50.70;;;33.05;;
28174;SDS011;59417;44.788;10.334;2022-12-18T11:49:21;57.95;;;34.55;;
28174;SDS011;59417;44.788;10.334;2022-12-18T11:52:10;50.45;;;32.78;;
28174;SDS011;59417;44.788;10.334;2022-12-18T11:54:59;52.80;;;31.35;;
28174;SDS011;59417;44.788;10.334;2022-12-18T12:01:27;54.95;;;30.17;;
28174;SDS011;59417;44.788;10.334;2022-12-18T12:04:36;51.28;;;30.90;;
28174;SDS011;59417;44.788;10.334;2022-12-18T12:07:40;54.35;;;31.35;;
28174;SDS011;59417;44.788;10.334;2022-12-18T12:13:41;61.55;;;31.20;;
28174;SDS011;59417;44.788;10.334;2022-12-18T12:20:00;51.22;;;30.10;;
28174;SDS011;59417;44.788;10.334;2022-12-18T12:26:06;48.05;;;29.80;;
28174;SDS011;59417;44.788;10.334;2022-12-18T12:35:32;44.97;;;26.70;;
28174;SDS011;59417;44.788;10.334;2022-12-18T12:41:12;50.08;;;31.80;;
28174;SDS011;59417;44.788;10.334;2022-12-18T12:44:17;50.33;;;30.95;;
28174;SDS011;59417;44.788;10.334;2022-12-18T12:46:47;54.47;;;32.63;;
28174;SDS011;59417;44.788;10.334;2022-12-18T12:49:18;46.10;;;29.95;;
28174;SDS011;59417;44.788;10.334;2022-12-18T12:51:50;44.35;;;30.58;;
28174;SDS011;59417;44.788;10.334;2022-12-18T12:54:24;46.90;;;29.85;;
28174;SDS011;59417;44.788;10.334;2022-12-18T13:07:24;45.45;;;29.67;;
28174;SDS011;59417;44.788;10.334;2022-12-18T13:12:58;44.45;;;26.58;;
28174;SDS011;59417;44.788;10.334;2022-12-18T13:15:33;42.40;;;28.85;;
28174;SDS011;59417;44.788;10.334;2022-12-18T13:18:20;47.10;;;30.20;;
28174;SDS011;59417;44.788;10.334;2022-12-18T13:21:12;44.03;;;29.63;;
28174;SDS011;59417;44.788;10.334;2022-12-18T13:23:46;40.72;;;27.52;;
28174;SDS011;59417;44.788;10.334;2022-12-18T13:31:13;45.78;;;29.35;;
28174;SDS011;59417;44.788;10.334;2022-12-18T13:34:42;45.13;;;28.77;;
28174;SDS011;59417;44.788;10.334;2022-12-18T13:36:50;44.70;;;28.25;;
28174;SDS011;59417;44.788;10.334;2022-12-18T13:41:46;39.47;;;28.15;;
28174;SDS011;59417;44.788;10.334;2022-12-18T13:44:24;40.80;;;28.52;;
28174;SDS011;59417;44.788;10.334;2022-12-18T13:46:56;43.72;;;29.17;;
28174;SDS011;59417;44.788;10.334;2022-12-18T13:51:52;47.42;;;30.10;;
28174;SDS011;59417;44.788;10.334;2022-12-18T13:56:58;42.45;;;29.25;;
28174;SDS011;59417;44.788;10.334;2022-12-18T13:59:25;42.78;;;28.65;;
28174;SDS011;59417;44.788;10.334;2022-12-18T14:01:55;45.78;;;28.88;;
28174;SDS011;59417;44.788;10.334;2022-12-18T14:04:29;48.33;;;28.73;;
28174;SDS011;59417;44.788;10.334;2022-12-18T14:06:57;44.50;;;28.08;;
28174;SDS011;59417;44.788;10.334;2022-12-18T14:09:31;49.80;;;28.88;;
28174;SDS011;59417;44.788;10.334;2022-12-18T14:12:01;45.17;;;28.20;;
28174;SDS011;59417;44.788;10.334;2022-12-18T14:14:49;44.45;;;27.85;;
28174;SDS011;59417;44.788;10.334;2022-12-18T14:17:17;42.67;;;28.98;;
28174;SDS011;59417;44.788;10.334;2022-12-18T14:19:48;39.50;;;25.58;;
28174;SDS011;59417;44.788;10.334;2022-12-18T14:22:19;40.08;;;26.25;;
28174;SDS011;59417;44.788;10.334;2022-12-18T14:25:10;42.60;;;28.65;;
28174;SDS011;59417;44.788;10.334;2022-12-18T14:27:47;43.28;;;28.92;;
28174;SDS011;59417;44.788;10.334;2022-12-18T14:30:22;46.13;;;27.27;;
28174;SDS011;59417;44.788;10.334;2022-12-18T14:35:37;45.17;;;29.65;;
28174;SDS011;59417;44.788;10.334;2022-12-18T14:38:16;43.17;;;29.20;;
28174;SDS011;59417;44.788;10.334;2022-12-18T14:40:52;48.35;;;29.92;;
28174;SDS011;59417;44.788;10.334;2022-12-18T14:43:23;47.25;;;28.88;;
28174;SDS011;59417;44.788;10.334;2022-12-18T14:45:49;40.78;;;28.05;;
28174;SDS011;59417;44.788;10.334;2022-12-18T14:53:48;47.15;;;28.38;;
28174;SDS011;59417;44.788;10.334;2022-12-18T14:58:56;42.97;;;29.20;;
28174;SDS011;59417;44.788;10.334;2022-12-18T15:01:32;47.75;;;30.65;;
28174;SDS011;59417;44.788;10.334;2022-12-18T15:04:00;44.33;;;29.45;;
28174;SDS011;59417;44.788;10.334;2022-12-18T15:06:35;46.67;;;30.42;;
28174;SDS011;59417;44.788;10.334;2022-12-18T15:09:23;51.90;;;29.25;;
28174;SDS011;59417;44.788;10.334;2022-12-18T15:17:19;52.53;;;31.10;;
28174;SDS011;59417;44.788;10.334;2022-12-18T15:19:48;53.42;;;33.13;;
28174;SDS011;59417;44.788;10.334;2022-12-18T15:22:27;53.42;;;33.10;;
28174;SDS011;59417;44.788;10.334;2022-12-18T15:24:59;47.88;;;32.15;;
28174;SDS011;59417;44.788;10.334;2022-12-18T15:32:37;50.33;;;30.10;;
28174;SDS011;59417;44.788;10.334;2022-12-18T15:37:39;49.95;;;32.95;;
28174;SDS011;59417;44.788;10.334;2022-12-18T15:40:04;50.78;;;32.42;;
28174;SDS011;59417;44.788;10.334;2022-12-18T15:42:31;55.40;;;35.38;;
28174;SDS011;59417;44.788;10.334;2022-12-18T15:45:15;53.17;;;34.25;;
28174;SDS011;59417;44.788;10.334;2022-12-18T15:47:41;52.88;;;34.10;;
28174;SDS011;59417;44.788;10.334;2022-12-18T15:50:07;55.20;;;34.42;;
28174;SDS011;59417;44.788;10.334;2022-12-18T15:52:43;51.80;;;34.80;;
28174;SDS011;59417;44.788;10.334;2022-12-18T15:55:23;55.90;;;37.30;;
28174;SDS011;59417;44.788;10.334;2022-12-18T15:58:08;55.05;;;36.85;;
28174;SDS011;59417;44.788;10.334;2022-12-18T16:00:37;51.97;;;33.95;;
28174;SDS011;59417;44.788;10.334;2022-12-18T16:03:04;54.53;;;36.65;;
28174;SDS011;59417;44.788;10.334;2022-12-18T16:05:31;54.28;;;36.45;;
28174;SDS011;59417;44.788;10.334;2022-12-18T16:07:57;57.92;;;35.22;;
28174;SDS011;59417;44.788;10.334;2022-12-18T16:10:24;56.25;;;36.55;;
28174;SDS011;59417;44.788;10.334;2022-12-18T16:12:50;58.20;;;34.80;;
28174;SDS011;59417;44.788;10.334;2022-12-18T16:15:16;52.03;;;34.25;;
28174;SDS011;59417;44.788;10.334;2022-12-18T16:17:42;50.55;;;34.60;;
28174;SDS011;59417;44.788;10.334;2022-12-18T16:20:12;60.10;;;34.42;;
28174;SDS011;59417;44.788;10.334;2022-12-18T16:22:40;54.17;;;33.40;;
28174;SDS011;59417;44.788;10.334;2022-12-18T16:25:08;48.58;;;33.83;;
28174;SDS011;59417;44.788;10.334;2022-12-18T16:27:41;54.33;;;34.13;;
28174;SDS011;59417;44.788;10.334;2022-12-18T16:30:08;52.13;;;33.35;;
28174;SDS011;59417;44.788;10.334;2022-12-18T16:32:38;53.85;;;33.75;;
28174;SDS011;59417;44.788;10.334;2022-12-18T16:35:05;51.17;;;33.33;;
28174;SDS011;59417;44.788;10.334;2022-12-18T16:37:31;49.78;;;31.83;;
28174;SDS011;59417;44.788;10.334;2022-12-18T16:39:58;55.13;;;33.53;;
28174;SDS011;59417;44.788;10.334;2022-12-18T16:42:23;50.53;;;34.40;;
28174;SDS011;59417;44.788;10.334;2022-12-18T16:44:49;53.42;;;34.38;;
28174;SDS011;59417;44.788;10.334;2022-12-18T16:47:15;54.97;;;33.05;;
28174;SDS011;59417;44.788;10.334;2022-12-18T16:49:42;56.90;;;35.38;;
28174;SDS011;59417;44.788;10.334;2022-12-18T16:52:11;57.78;;;33.80;;
28174;SDS011;59417;44.788;10.334;2022-12-18T16:54:38;53.67;;;33.28;;